Time;durP1;ratioP1;P1;durP2;ratioP2;P2;SDS_P1;SDS_P2;PMS_P1;PMS_P2;Temp;Humidity;BMP_temperature;BMP_pressure;BME280_temperature;BME280_humidity;BME280_pressure;Samples;Min_cycle;Max_cycle;Signal;HPM_P1;HPM_P2
2023/01/07 00:01:28;;;;;;;2.92;2.83;;;5.60;99.90;;;;;;6038314;23;20383;-78
2023/01/07 00:03:58;;;;;;;3.20;3.00;;;5.60;99.90;;;;;;6039326;23;20435;-79
2023/01/07 00:06:27;;;;;;;3.22;3.13;;;5.60;99.90;;;;;;6039063;23;21822;-78
2023/01/07 00:08:56;;;;;;;3.70;3.50;;;5.60;99.90;;;;;;6039328;23;20431;-78
2023/01/07 00:11:30;;;;;;;3.20;3.00;;;5.50;99.90;;;;;;6038829;23;20411;-78
2023/01/07 00:13:58;;;;;;;2.85;2.75;;;5.50;99.90;;;;;;6065059;23;20390;-78
2023/01/07 00:16:30;;;;;;;2.80;2.70;;;5.50;99.90;;;;;;6062375;23;20380;-78
2023/01/07 00:19:00;;;;;;;3.03;2.90;;;5.50;99.90;;;;;;6065246;23;20764;-78
2023/01/07 00:21:28;;;;;;;2.60;2.50;;;5.50;99.90;;;;;;6038300;23;20397;-77
2023/01/07 00:23:57;;;;;;;2.80;2.70;;;5.50;99.90;;;;;;6064976;23;20450;-78
2023/01/07 00:26:28;;;;;;;2.70;2.60;;;5.50;99.90;;;;;;6038851;23;20764;-78
2023/01/07 00:28:54;;;;;;;2.83;2.72;;;5.50;99.90;;;;;;6064725;23;20388;-78
2023/01/07 00:31:27;;;;;;;2.90;2.80;;;5.50;99.90;;;;;;6039066;23;20862;-78
2023/01/07 00:36:23;;;;;;;2.50;2.40;;;5.50;99.90;;;;;;6048575;23;20388;-78
2023/01/07 00:38:54;;;;;;;2.60;2.50;;;5.50;99.90;;;;;;6035053;23;20400;-78
2023/01/07 00:41:22;;;;;;;2.70;2.60;;;5.50;99.90;;;;;;6034002;23;20381;-78
2023/01/07 00:43:49;;;;;;;2.78;2.67;;;5.50;99.90;;;;;;6036236;23;20392;-78
2023/01/07 00:46:16;;;;;;;2.60;2.50;;;5.40;99.90;;;;;;6033928;23;20449;-77
2023/01/07 00:48:43;;;;;;;2.70;2.60;;;5.40;99.90;;;;;;6034185;23;20459;-78
2023/01/07 00:51:12;;;;;;;2.47;2.38;;;5.40;99.90;;;;;;6034274;23;20384;-78
2023/01/07 00:53:39;;;;;;;2.88;2.78;;;5.40;99.90;;;;;;6035809;23;20438;-78
2023/01/07 00:56:07;;;;;;;2.30;2.20;;;5.40;99.90;;;;;;6034699;23;20385;-78
2023/01/07 00:58:34;;;;;;;2.60;2.50;;;5.30;99.90;;;;;;6046936;23;20380;-78
2023/01/07 01:01:02;;;;;;;2.60;2.50;;;5.30;99.90;;;;;;6034518;23;20440;-78
2023/01/07 01:03:30;;;;;;;2.40;2.30;;;5.20;99.90;;;;;;6033124;23;20395;-78
2023/01/07 01:06:11;;;;;;;2.33;2.22;;;5.20;99.90;;;;;;6034535;23;20464;-77
2023/01/07 01:08:40;;;;;;;2.80;2.70;;;5.10;99.90;;;;;;6047116;23;20376;-78
2023/01/07 01:11:08;;;;;;;2.65;2.55;;;5.00;99.90;;;;;;6034186;23;20751;-78
2023/01/07 01:13:36;;;;;;;2.80;2.70;;;4.90;99.90;;;;;;6035048;23;20377;-78
2023/01/07 01:16:08;;;;;;;2.55;2.45;;;4.80;99.90;;;;;;6035636;23;20381;-78
2023/01/07 01:18:35;;;;;;;2.53;2.42;;;4.70;99.90;;;;;;6035139;23;20383;-78
2023/01/07 01:21:07;;;;;;;2.55;2.45;;;4.70;99.90;;;;;;6034140;23;20380;-78
2023/01/07 01:23:35;;;;;;;2.40;2.30;;;4.70;99.90;;;;;;6033386;23;20471;-78
2023/01/07 01:26:07;;;;;;;2.50;2.40;;;4.60;99.90;;;;;;6034212;23;20452;-78
2023/01/07 01:28:34;;;;;;;2.60;2.50;;;4.50;99.90;;;;;;6033316;23;20389;-78
2023/01/07 01:31:02;;;;;;;2.38;2.28;;;4.50;99.90;;;;;;6034471;23;20437;-78
2023/01/07 01:33:29;;;;;;;2.30;2.20;;;4.50;99.90;;;;;;6033651;23;20389;-78
2023/01/07 01:35:56;;;;;;;2.30;2.20;;;4.50;99.90;;;;;;6019618;23;20457;-78
2023/01/07 01:38:23;;;;;;;2.40;2.30;;;4.50;99.90;;;;;;6009828;23;20393;-77
2023/01/07 01:40:50;;;;;;;2.78;2.58;;;4.50;99.90;;;;;;6054541;23;20755;-78
2023/01/07 01:43:45;;;;;;;2.42;2.33;;;4.40;99.90;;;;;;6061688;23;20438;-78
2023/01/07 01:46:21;;;;;;;2.50;2.40;;;4.40;99.90;;;;;;6060960;23;20756;-78
2023/01/07 01:49:21;;;;;;;2.53;2.42;;;4.40;99.90;;;;;;6061915;23;20689;-78
2023/01/07 01:52:11;;;;;;;2.47;2.38;;;4.30;99.90;;;;;;6050814;23;20423;-78
2023/01/07 01:54:42;;;;;;;2.40;2.30;;;4.30;99.90;;;;;;6060495;23;20438;-78
2023/01/07 01:57:09;;;;;;;2.28;2.17;;;4.30;99.90;;;;;;6062957;23;20442;-78
2023/01/07 01:59:40;;;;;;;2.20;2.10;;;4.30;99.90;;;;;;6062204;23;20382;-78
2023/01/07 02:02:08;;;;;;;2.28;2.17;;;4.30;99.90;;;;;;6067709;23;20439;-79
2023/01/07 02:34:30;;;;;;;2.20;2.10;;;3.80;99.90;;;;;;6119577;23;20375;-73
2023/01/07 02:37:19;;;;;;;2.70;2.53;;;3.80;99.90;;;;;;6095782;23;20426;-74
2023/01/07 02:40:09;;;;;;;2.22;2.13;;;3.70;99.90;;;;;;6094308;23;20376;-73
2023/01/07 02:42:48;;;;;;;2.58;2.47;;;3.60;99.90;;;;;;6120775;23;20443;-73
2023/01/07 02:45:45;;;;;;;2.30;2.20;;;3.50;99.90;;;;;;6096378;23;20422;-76
2023/01/07 02:48:16;;;;;;;3.00;2.80;;;3.40;99.90;;;;;;6085244;23;20884;-75
2023/01/07 02:50:43;;;;;;;2.10;2.00;;;3.30;99.90;;;;;;6096021;23;20479;-76
2023/01/07 02:53:14;;;;;;;2.25;2.15;;;3.30;99.90;;;;;;6095187;23;20426;-76
2023/01/07 02:56:23;;;;;;;2.40;2.30;;;3.20;99.90;;;;;;6096131;23;20455;-74
2023/01/07 02:58:56;;;;;;;2.25;2.15;;;3.20;99.90;;;;;;6119549;23;20427;-75
2023/01/07 03:01:35;;;;;;;2.33;2.22;;;3.20;99.90;;;;;;6096665;23;20982;-75
2023/01/07 03:04:24;;;;;;;2.30;2.20;;;3.10;99.90;;;;;;6120102;23;20723;-77
2023/01/07 03:07:19;;;;;;;2.10;2.00;;;3.10;99.90;;;;;;6096498;23;20446;-73
2023/01/07 03:10:04;;;;;;;2.03;1.92;;;3.10;99.90;;;;;;6096715;23;20422;-73
2023/01/07 03:12:37;;;;;;;2.30;2.20;;;3.00;99.90;;;;;;6097536;23;20426;-76
2023/01/07 03:15:17;;;;;;;2.42;2.33;;;3.00;99.90;;;;;;6097424;23;20383;-75
2023/01/07 03:17:51;;;;;;;2.50;2.40;;;3.00;99.90;;;;;;6096679;23;20434;-75
2023/01/07 03:20:20;;;;;;;2.10;2.00;;;3.00;99.90;;;;;;6122071;23;20766;-76
2023/01/07 03:22:48;;;;;;;2.05;1.95;;;3.00;99.90;;;;;;6096806;23;20422;-76
2023/01/07 03:25:19;;;;;;;2.20;2.10;;;3.00;99.90;;;;;;6097710;23;20418;-76
2023/01/07 03:27:49;;;;;;;2.47;2.38;;;3.00;99.90;;;;;;6096790;23;20416;-75
2023/01/07 03:30:18;;;;;;;2.30;2.20;;;2.90;99.90;;;;;;6097721;23;20395;-75
2023/01/07 03:33:01;;;;;;;2.20;2.10;;;2.90;99.90;;;;;;6096325;23;20446;-75
2023/01/07 03:35:31;;;;;;;2.25;2.15;;;2.80;99.90;;;;;;6097465;23;20386;-75
2023/01/07 03:38:00;;;;;;;2.27;2.17;;;2.80;99.90;;;;;;6096929;23;20426;-75
2023/01/07 03:40:28;;;;;;;1.83;1.73;;;2.80;99.90;;;;;;6098451;23;20430;-75
2023/01/07 03:42:55;;;;;;;2.20;2.10;;;2.80;99.90;;;;;;6122014;23;20399;-75
2023/01/07 03:45:23;;;;;;;2.00;1.90;;;2.80;99.90;;;;;;6123217;23;20783;-75
2023/01/07 03:47:54;;;;;;;2.08;1.98;;;2.80;99.90;;;;;;6096663;23;20439;-73
2023/01/07 03:50:22;;;;;;;1.97;1.87;;;2.80;99.90;;;;;;6122730;23;20427;-73
2023/01/07 03:52:49;;;;;;;2.03;1.92;;;2.80;99.90;;;;;;6122442;23;20461;-76
2023/01/07 03:55:16;;;;;;;1.95;1.85;;;2.80;99.90;;;;;;6097744;23;20397;-75
2023/01/07 03:57:43;;;;;;;1.98;1.88;;;2.80;99.90;;;;;;6122378;23;20451;-76
2023/01/07 04:00:12;;;;;;;2.10;2.00;;;2.80;99.90;;;;;;6123104;23;20372;-75
2023/01/07 04:02:39;;;;;;;2.10;2.00;;;2.80;99.90;;;;;;6121690;23;20427;-75
2023/01/07 04:05:06;;;;;;;1.98;1.88;;;2.80;99.90;;;;;;6096462;23;20398;-75
2023/01/07 04:07:33;;;;;;;2.20;2.10;;;2.80;99.90;;;;;;6122729;23;20836;-76
2023/01/07 04:10:00;;;;;;;2.05;1.95;;;2.80;99.90;;;;;;6096914;23;20376;-75
2023/01/07 04:12:27;;;;;;;1.98;1.88;;;2.80;99.90;;;;;;6097132;23;20882;-76
2023/01/07 04:14:54;;;;;;;1.63;1.60;;;2.60;99.90;;;;;;6120941;23;20382;-76
2023/01/07 04:17:23;;;;;;;1.90;1.80;;;2.60;99.90;;;;;;6121389;23;20383;-75
2023/01/07 04:19:49;;;;;;;1.98;1.88;;;2.50;99.90;;;;;;6096502;23;20465;-75
2023/01/07 04:22:16;;;;;;;1.95;1.85;;;2.50;99.90;;;;;;6121665;23;20375;-75
2023/01/07 04:24:43;;;;;;;1.90;1.80;;;2.40;99.90;;;;;;6123134;23;20383;-75
2023/01/07 04:27:10;;;;;;;1.90;1.80;;;2.40;99.90;;;;;;6122052;23;20375;-76
2023/01/07 04:29:37;;;;;;;1.90;1.80;;;2.40;99.90;;;;;;6097355;23;20379;-75
2023/01/07 04:32:04;;;;;;;2.10;2.00;;;2.30;99.90;;;;;;6096381;23;20477;-76
2023/01/07 04:34:31;;;;;;;1.87;1.77;;;2.30;99.90;;;;;;6097352;23;20462;-76
2023/01/07 04:36:58;;;;;;;2.00;1.90;;;2.30;99.90;;;;;;6095734;23;20832;-75
2023/01/07 04:39:25;;;;;;;1.80;1.70;;;2.30;99.90;;;;;;6122054;23;20372;-75
2023/01/07 04:41:52;;;;;;;2.00;1.90;;;2.30;99.90;;;;;;6120565;23;20879;-76
2023/01/07 04:44:19;;;;;;;2.03;1.92;;;2.20;99.90;;;;;;6097426;23;20720;-76
2023/01/07 04:46:45;;;;;;;2.10;2.00;;;2.20;99.90;;;;;;6121098;23;20479;-73
2023/01/07 04:49:12;;;;;;;2.13;2.03;;;2.20;99.90;;;;;;6120413;23;20431;-73
2023/01/07 04:51:39;;;;;;;2.25;2.15;;;2.20;99.90;;;;;;6122663;23;20874;-75
2023/01/07 04:54:06;;;;;;;2.10;2.00;;;2.10;99.90;;;;;;6095995;23;20791;-75
2023/01/07 04:56:33;;;;;;;2.08;1.98;;;2.00;99.90;;;;;;6096630;23;20859;-75
2023/01/07 04:59:00;;;;;;;1.95;1.85;;;1.80;99.90;;;;;;6121719;23;20455;-76
2023/01/07 05:01:29;;;;;;;2.00;1.90;;;1.70;99.90;;;;;;6096959;23;20489;-72
2023/01/07 05:03:57;;;;;;;2.00;1.90;;;1.80;99.90;;;;;;6096140;23;20400;-75
2023/01/07 05:06:24;;;;;;;1.95;1.85;;;1.80;99.90;;;;;;6096475;23;20422;-76
2023/01/07 05:08:51;;;;;;;2.10;1.80;;;1.90;99.90;;;;;;6120475;23;20383;-75
2023/01/07 05:11:20;;;;;;;2.00;1.90;;;2.00;99.90;;;;;;6096989;23;20383;-75
2023/01/07 05:13:51;;;;;;;1.88;1.77;;;2.10;99.90;;;;;;6097109;23;20943;-75
2023/01/07 05:16:18;;;;;;;1.83;1.73;;;2.20;99.90;;;;;;6096389;23;20423;-75
2023/01/07 05:18:44;;;;;;;1.88;1.77;;;2.20;99.90;;;;;;6122438;23;20427;-77
2023/01/07 05:21:11;;;;;;;1.90;1.80;;;2.20;99.90;;;;;;6120156;23;20376;-75
2023/01/07 05:23:38;;;;;;;1.83;1.73;;;2.20;99.90;;;;;;6122087;23;20380;-76
2023/01/07 05:26:06;;;;;;;1.70;1.60;;;2.20;99.90;;;;;;6121457;23;20384;-76
2023/01/07 05:28:33;;;;;;;1.85;1.75;;;2.20;99.90;;;;;;6122330;23;20387;-75
2023/01/07 05:31:00;;;;;;;1.70;1.60;;;2.30;99.90;;;;;;6095891;23;20379;-75
2023/01/07 05:33:27;;;;;;;1.80;1.70;;;2.30;99.90;;;;;;6120868;23;20411;-74
2023/01/07 05:35:54;;;;;;;1.70;1.60;;;2.30;99.90;;;;;;6120706;23;20398;-76
2023/01/07 05:38:21;;;;;;;1.70;1.60;;;2.30;99.90;;;;;;6096428;23;20494;-75
2023/01/07 05:40:48;;;;;;;1.90;1.80;;;2.40;99.90;;;;;;6122124;23;20460;-76
2023/01/07 05:43:16;;;;;;;1.70;1.60;;;2.50;99.90;;;;;;6096070;23;20452;-76
2023/01/07 05:45:46;;;;;;;1.60;1.50;;;2.50;99.90;;;;;;6122327;23;20367;-75
2023/01/07 05:48:14;;;;;;;1.80;1.70;;;2.50;99.90;;;;;;6120007;23;20380;-76
2023/01/07 05:50:41;;;;;;;1.67;1.58;;;2.50;99.90;;;;;;6122473;23;20930;-76
2023/01/07 05:53:08;;;;;;;1.75;1.65;;;2.60;99.90;;;;;;6121206;23;20445;-75
2023/01/07 05:55:37;;;;;;;1.80;1.70;;;2.70;99.90;;;;;;6122433;23;20835;-75
2023/01/07 05:58:04;;;;;;;1.60;1.50;;;2.70;99.90;;;;;;6120950;23;20827;-76
2023/01/07 06:00:32;;;;;;;1.80;1.70;;;2.60;99.90;;;;;;6121015;23;20435;-76
2023/01/07 06:02:59;;;;;;;1.50;1.40;;;2.60;99.90;;;;;;6095270;23;20720;-76
2023/01/07 06:05:26;;;;;;;1.83;1.73;;;2.60;99.90;;;;;;6096817;23;20380;-76
2023/01/07 06:07:52;;;;;;;1.85;1.75;;;2.50;99.90;;;;;;6096307;23;20781;-75
2023/01/07 06:10:19;;;;;;;1.65;1.55;;;2.50;99.90;;;;;;6095798;23;20364;-75
2023/01/07 06:12:46;;;;;;;2.00;1.90;;;2.40;99.90;;;;;;6096360;23;20414;-76
2023/01/07 06:15:13;;;;;;;2.08;1.98;;;2.40;99.90;;;;;;6095802;23;20447;-75
2023/01/07 06:17:40;;;;;;;2.08;1.98;;;2.30;99.90;;;;;;6120496;23;20386;-76
2023/01/07 06:20:08;;;;;;;1.90;1.80;;;2.30;99.90;;;;;;6121459;23;20685;-75
2023/01/07 06:22:35;;;;;;;1.85;1.75;;;2.30;99.90;;;;;;6121587;23;20379;-75
2023/01/07 06:25:02;;;;;;;1.90;1.80;;;2.30;99.90;;;;;;6120043;23;20493;-76
2023/01/07 06:27:29;;;;;;;1.88;1.77;;;2.20;99.90;;;;;;6096790;23;20379;-75
2023/01/07 06:29:56;;;;;;;1.92;1.83;;;2.20;99.90;;;;;;6121961;23;20447;-72
2023/01/07 06:32:23;;;;;;;1.70;1.60;;;2.20;99.90;;;;;;6095522;23;20791;-73
2023/01/07 06:34:50;;;;;;;1.73;1.63;;;2.10;99.90;;;;;;6096561;23;20376;-75
2023/01/07 06:37:17;;;;;;;1.55;1.45;;;2.00;99.90;;;;;;6095952;23;20777;-76
2023/01/07 06:39:44;;;;;;;1.87;1.77;;;2.00;99.90;;;;;;6097816;23;20415;-75
2023/01/07 06:42:11;;;;;;;1.83;1.73;;;1.90;99.90;;;;;;6121673;23;20434;-75
2023/01/07 06:44:38;;;;;;;1.77;1.67;;;1.90;99.90;;;;;;6098592;23;20376;-75
2023/01/07 06:47:04;;;;;;;1.70;1.63;;;1.80;99.90;;;;;;6097116;23;20427;-75
2023/01/07 06:49:32;;;;;;;1.50;1.40;;;1.80;99.90;;;;;;6098264;23;20415;-76
2023/01/07 06:51:58;;;;;;;1.90;1.80;;;1.80;99.90;;;;;;6123615;23;20450;-77
2023/01/07 06:54:25;;;;;;;2.00;1.90;;;1.70;99.90;;;;;;6123107;23;20368;-76
2023/01/07 06:56:52;;;;;;;1.60;1.60;;;1.70;99.90;;;;;;6098573;23;20403;-75
2023/01/07 06:59:19;;;;;;;1.87;1.77;;;1.60;99.90;;;;;;6122920;23;20427;-76
2023/01/07 07:01:46;;;;;;;1.80;1.70;;;1.60;99.90;;;;;;6098435;23;20755;-75
2023/01/07 07:04:13;;;;;;;1.90;1.80;;;1.60;99.90;;;;;;6122762;23;20681;-78
2023/01/07 07:06:39;;;;;;;1.88;1.77;;;1.50;99.90;;;;;;6098075;23;20920;-75
2023/01/07 07:09:06;;;;;;;1.92;1.83;;;1.50;99.90;;;;;;6096013;23;20427;-72
2023/01/07 07:11:35;;;;;;;2.10;2.00;;;1.50;99.90;;;;;;6119988;23;20454;-73
2023/01/07 07:14:03;;;;;;;2.10;2.00;;;1.50;99.90;;;;;;6122985;23;20384;-75
2023/01/07 07:16:29;;;;;;;2.13;2.03;;;1.50;99.90;;;;;;6096610;23;20422;-76
2023/01/07 07:18:58;;;;;;;1.77;1.67;;;1.50;99.90;;;;;;6123343;23;20430;-76
2023/01/07 07:21:25;;;;;;;2.22;2.13;;;1.50;99.90;;;;;;6097625;23;22923;-77
2023/01/07 07:23:52;;;;;;;2.47;2.38;;;1.60;99.90;;;;;;6098412;23;20384;-77
2023/01/07 07:26:19;;;;;;;2.15;2.05;;;1.60;99.90;;;;;;6122923;23;20375;-78
2023/01/07 07:28:46;;;;;;;2.15;2.05;;;1.60;99.90;;;;;;6122378;23;20840;-78
2023/01/07 07:31:12;;;;;;;2.23;2.13;;;1.60;99.90;;;;;;6097442;23;21011;-74
2023/01/07 07:33:39;;;;;;;2.60;2.50;;;1.60;99.90;;;;;;6097808;23;20852;-74
2023/01/07 07:36:07;;;;;;;2.55;2.45;;;1.70;99.90;;;;;;6121511;23;20400;-75
2023/01/07 07:38:34;;;;;;;3.10;2.90;;;1.70;99.90;;;;;;6123625;23;20422;-78
2023/01/07 07:41:00;;;;;;;2.85;2.65;;;1.80;99.90;;;;;;6122424;23;20397;-77
2023/01/07 07:43:27;;;;;;;2.58;2.47;;;1.80;99.90;;;;;;6122385;23;20415;-77
2023/01/07 07:45:56;;;;;;;2.30;2.20;;;1.90;99.90;;;;;;6097559;23;20383;-77
2023/01/07 07:48:23;;;;;;;2.55;2.45;;;1.90;99.90;;;;;;6096942;23;20376;-77
2023/01/07 07:50:50;;;;;;;2.53;2.40;;;2.00;99.90;;;;;;6121876;23;20387;-78
2023/01/07 07:53:18;;;;;;;2.38;2.28;;;2.00;99.90;;;;;;6122729;23;20754;-77
2023/01/07 07:55:45;;;;;;;2.47;2.38;;;2.10;99.90;;;;;;6097557;23;20863;-74
2023/01/07 07:58:13;;;;;;;2.20;2.10;;;2.20;99.90;;;;;;6121279;23;20380;-74
2023/01/07 08:00:40;;;;;;;2.47;2.27;;;2.20;99.90;;;;;;6097791;23;20380;-78
2023/01/07 08:03:07;;;;;;;2.90;2.80;;;2.30;99.90;;;;;;6097862;23;20436;-77
2023/01/07 08:05:34;;;;;;;2.67;2.57;;;2.50;99.90;;;;;;6096835;23;20384;-77
2023/01/07 08:08:01;;;;;;;2.28;2.17;;;2.60;99.90;;;;;;6097845;23;20384;-74
2023/01/07 08:10:28;;;;;;;2.25;2.15;;;2.70;99.90;;;;;;6122013;23;20380;-75
2023/01/07 08:12:55;;;;;;;2.30;2.20;;;2.90;99.90;;;;;;6120825;23;20459;-78
2023/01/07 08:15:22;;;;;;;2.00;1.90;;;3.00;99.90;;;;;;6120157;23;20426;-77
2023/01/07 08:17:57;;;;;;;1.95;1.85;;;3.10;99.90;;;;;;6097114;23;20380;-79
2023/01/07 08:20:24;;;;;;;2.10;2.00;;;3.20;99.90;;;;;;6120674;23;20457;-78
2023/01/07 08:22:50;;;;;;;2.35;2.25;;;3.30;99.90;;;;;;6123394;23;20380;-77
2023/01/07 08:25:18;;;;;;;2.78;2.67;;;3.40;99.90;;;;;;6121382;23;20380;-78
2023/01/07 08:27:45;;;;;;;2.70;2.60;;;3.50;99.90;;;;;;6122655;23;20406;-76
2023/01/07 08:30:12;;;;;;;3.13;2.92;;;3.50;99.90;;;;;;6094249;23;20391;-73
2023/01/07 08:32:42;;;;;;;3.05;2.85;;;3.60;99.90;;;;;;6119648;23;20910;-74
2023/01/07 08:35:09;;;;;;;2.80;2.70;;;3.70;99.90;;;;;;6094409;23;20883;-73
2023/01/07 08:37:36;;;;;;;2.70;2.50;;;3.70;99.90;;;;;;6096037;23;20375;-74
2023/01/07 08:40:04;;;;;;;2.40;2.30;;;3.80;99.90;;;;;;6097409;23;20393;-74
2023/01/07 08:42:31;;;;;;;2.08;1.98;;;3.90;99.90;;;;;;6072258;23;20422;-75
2023/01/07 08:44:58;;;;;;;1.93;1.83;;;3.90;99.90;;;;;;6116397;23;20466;-74
2023/01/07 08:47:29;;;;;;;2.13;2.03;;;4.10;99.90;;;;;;6119888;23;20443;-73
2023/01/07 08:49:56;;;;;;;2.47;2.38;;;4.20;99.90;;;;;;6093941;23;20488;-74
2023/01/07 08:52:24;;;;;;;2.10;2.00;;;4.20;99.90;;;;;;6093798;23;20407;-74
2023/01/07 08:54:51;;;;;;;2.00;1.90;;;4.20;99.90;;;;;;6094100;23;20407;-74
2023/01/07 08:57:18;;;;;;;1.80;1.70;;;4.30;99.90;;;;;;6119603;23;20406;-73
2023/01/07 08:59:45;;;;;;;1.88;1.77;;;4.40;99.90;;;;;;6093748;23;20388;-75
2023/01/07 09:02:14;;;;;;;1.88;1.77;;;4.40;99.90;;;;;;6091923;23;20379;-74
2023/01/07 09:04:41;;;;;;;1.70;1.60;;;4.40;99.90;;;;;;6114582;23;20395;-76
2023/01/07 09:07:09;;;;;;;1.80;1.70;;;4.40;99.90;;;;;;6093423;23;20406;-74
2023/01/07 09:09:36;;;;;;;2.10;2.00;;;4.50;99.90;;;;;;6116332;23;20508;-74
2023/01/07 09:12:04;;;;;;;2.20;2.10;;;4.50;99.90;;;;;;6094317;23;20380;-74
2023/01/07 09:14:34;;;;;;;2.17;1.98;;;4.60;99.90;;;;;;6093131;23;20422;-74
2023/01/07 09:17:01;;;;;;;1.58;1.50;;;4.60;99.90;;;;;;6114669;23;20380;-76
2023/01/07 09:19:28;;;;;;;1.77;1.67;;;4.60;99.30;;;;;;6117818;23;20380;-75
2023/01/07 09:21:55;;;;;;;1.75;1.65;;;4.70;98.90;;;;;;6091022;23;20379;-74
2023/01/07 09:24:22;;;;;;;1.60;1.50;;;4.70;97.70;;;;;;6118228;23;20411;-74
2023/01/07 09:26:49;;;;;;;1.40;1.30;;;4.80;98.50;;;;;;6116194;23;20387;-74
2023/01/07 09:29:16;;;;;;;1.45;1.35;;;4.80;98.90;;;;;;6094738;23;20407;-75
2023/01/07 09:31:43;;;;;;;1.88;1.77;;;4.80;98.20;;;;;;6094281;23;20404;-74
2023/01/07 09:34:10;;;;;;;1.77;1.67;;;4.90;98.00;;;;;;6120085;23;20431;-75
2023/01/07 09:36:37;;;;;;;1.77;1.67;;;4.90;98.00;;;;;;6091833;23;20399;-75
2023/01/07 09:39:04;;;;;;;1.95;1.85;;;5.00;98.50;;;;;;6060594;23;20376;-75
2023/01/07 09:41:45;;;;;;;1.75;1.65;;;5.10;98.40;;;;;;6093852;23;20399;-75
2023/01/07 09:44:24;;;;;;;1.90;1.80;;;5.10;97.00;;;;;;6093117;23;20775;-75
2023/01/07 09:46:53;;;;;;;1.55;1.50;;;5.20;96.20;;;;;;6095463;23;20395;-75
2023/01/07 09:49:28;;;;;;;1.50;1.40;;;5.30;95.00;;;;;;6119208;23;20383;-75
2023/01/07 09:52:02;;;;;;;1.75;1.65;;;5.40;94.40;;;;;;6095887;23;20367;-75
2023/01/07 09:54:33;;;;;;;1.48;1.38;;;5.50;92.60;;;;;;6120500;23;20411;-74
2023/01/07 09:57:00;;;;;;;1.58;1.45;;;5.60;92.80;;;;;;6121419;23;20767;-75
2023/01/07 09:59:27;;;;;;;1.63;1.52;;;5.60;92.50;;;;;;6096614;23;20388;-75
2023/01/07 10:02:26;;;;;;;1.67;1.58;;;5.70;91.20;;;;;;6119552;23;20411;-75
2023/01/07 10:05:14;;;;;;;1.58;1.40;;;5.80;91.40;;;;;;6094784;23;20443;-76
2023/01/07 10:07:51;;;;;;;1.20;1.20;;;5.90;87.90;;;;;;6119321;23;20682;-75
2023/01/07 10:11:16;;;;;;;1.70;1.60;;;6.00;83.70;;;;;;6099738;23;20421;-75
2023/01/07 10:13:56;;;;;;;1.37;1.27;;;6.20;84.10;;;;;;6113982;23;20380;-74
2023/01/07 10:16:42;;;;;;;1.52;1.30;;;6.30;81.60;;;;;;6124174;23;20384;-74
2023/01/07 10:19:47;;;;;;;1.23;1.15;;;6.50;79.80;;;;;;6123593;23;20862;-74
2023/01/07 10:22:43;;;;;;;1.50;1.40;;;6.60;79.40;;;;;;6088035;23;20379;-74
2023/01/07 10:25:20;;;;;;;1.40;1.30;;;6.60;80.20;;;;;;6098169;23;20729;-75
2023/01/07 10:27:51;;;;;;;1.58;1.48;;;6.70;80.30;;;;;;6098800;23;20430;-74
2023/01/07 10:30:23;;;;;;;1.70;1.60;;;6.80;79.00;;;;;;6122167;23;20438;-74
2023/01/07 10:32:57;;;;;;;1.92;1.75;;;6.80;78.70;;;;;;6122469;23;20435;-74
2023/01/07 10:35:29;;;;;;;1.90;1.80;;;6.90;80.70;;;;;;6097526;23;20375;-74
2023/01/07 10:38:01;;;;;;;1.30;1.30;;;6.90;78.00;;;;;;6124188;23;20466;-74
2023/01/07 10:40:42;;;;;;;1.77;1.67;;;6.90;79.70;;;;;;6097548;23;20906;-74
2023/01/07 10:43:55;;;;;;;1.48;1.38;;;7.00;78.50;;;;;;6097675;23;20408;-76
2023/01/07 10:46:41;;;;;;;1.63;1.50;;;7.10;77.80;;;;;;6123581;23;20452;-75
2023/01/07 10:49:27;;;;;;;1.60;1.50;;;7.30;76.00;;;;;;6097813;23;20375;-74
2023/01/07 10:52:28;;;;;;;1.85;1.75;;;7.40;74.10;;;;;;6123518;23;20454;-75
2023/01/07 10:55:14;;;;;;;1.47;1.37;;;7.50;74.60;;;;;;6097313;23;20442;-74
2023/01/07 10:57:42;;;;;;;1.20;1.20;;;7.60;74.30;;;;;;6122925;23;20926;-74
2023/01/07 11:00:13;;;;;;;1.50;1.40;;;7.60;72.20;;;;;;6098529;23;20411;-75
2023/01/07 11:02:49;;;;;;;1.50;1.40;;;7.80;70.60;;;;;;6122616;23;20376;-76
2023/01/07 11:05:20;;;;;;;1.75;1.65;;;7.80;70.40;;;;;;6098039;23;20767;-74
2023/01/07 11:07:51;;;;;;;1.73;1.63;;;7.90;69.80;;;;;;6096351;23;20380;-75
2023/01/07 11:10:24;;;;;;;1.80;1.70;;;7.90;70.80;;;;;;6097683;23;20384;-74
2023/01/07 11:12:58;;;;;;;1.37;1.30;;;8.00;70.90;;;;;;6096797;23;20708;-74
2023/01/07 11:15:35;;;;;;;1.27;1.17;;;8.00;70.60;;;;;;6122911;23;20734;-74
2023/01/07 11:18:16;;;;;;;1.52;1.42;;;8.10;71.30;;;;;;6118279;23;20379;-74
2023/01/07 11:20:44;;;;;;;1.50;1.40;;;8.30;71.10;;;;;;6120819;23;20412;-75
2023/01/07 11:23:31;;;;;;;1.70;1.60;;;8.50;69.50;;;;;;6096019;23;20494;-74
2023/01/07 11:26:31;;;;;;;1.50;1.40;;;8.50;68.30;;;;;;6109785;23;20386;-75
2023/01/07 11:29:12;;;;;;;1.20;1.20;;;8.70;68.60;;;;;;6095364;23;20386;-75
2023/01/07 11:31:47;;;;;;;1.40;1.30;;;8.80;68.00;;;;;;6095367;23;20438;-75
2023/01/07 11:34:31;;;;;;;1.38;1.17;;;8.90;67.30;;;;;;6122565;23;20743;-75
2023/01/07 11:36:58;;;;;;;1.40;1.30;;;9.00;66.60;;;;;;6121658;23;20388;-74
2023/01/07 11:39:28;;;;;;;1.10;1.00;;;9.00;65.60;;;;;;6122282;23;20413;-75
2023/01/07 11:45:17;;;;;;;1.10;1.05;;;9.30;66.00;;;;;;6063109;23;20923;-76
2023/01/07 11:48:09;;;;;;;1.20;1.10;;;9.40;64.50;;;;;;6058450;23;20385;-76
2023/01/07 11:50:42;;;;;;;1.23;1.13;;;9.40;64.10;;;;;;6084912;23;20433;-75
2023/01/07 11:53:15;;;;;;;1.23;1.03;;;9.40;65.20;;;;;;6091084;23;20869;-75
2023/01/07 11:56:03;;;;;;;1.10;1.00;;;9.40;65.70;;;;;;6093259;23;20472;-75
2023/01/07 11:58:33;;;;;;;1.40;1.30;;;9.50;66.90;;;;;;6115392;23;20876;-75
2023/01/07 12:01:14;;;;;;;1.40;1.30;;;9.70;66.30;;;;;;6091714;23;20388;-75
2023/01/07 12:03:52;;;;;;;1.20;1.20;;;9.70;65.60;;;;;;6115442;23;20671;-75
2023/01/07 12:06:29;;;;;;;1.60;1.50;;;9.70;66.10;;;;;;6091978;23;20416;-75
2023/01/07 12:09:19;;;;;;;1.40;1.30;;;9.40;69.20;;;;;;6091204;23;20491;-75
2023/01/07 12:11:46;;;;;;;1.50;1.40;;;9.60;70.70;;;;;;6095539;23;20396;-76
2023/01/07 12:14:16;;;;;;;1.50;1.40;;;9.40;71.30;;;;;;6096158;23;20379;-74
2023/01/07 12:16:44;;;;;;;1.60;1.35;;;9.60;72.90;;;;;;6096007;23;20411;-75
2023/01/07 12:19:47;;;;;;;1.58;1.48;;;9.90;72.30;;;;;;6096234;23;20383;-75
2023/01/07 12:22:32;;;;;;;1.30;1.20;;;9.90;72.40;;;;;;6096027;23;21294;-75
2023/01/07 12:25:20;;;;;;;1.05;1.05;;;10.00;72.80;;;;;;6121332;23;20380;-75
2023/01/07 12:31:36;;;;;;;0.90;0.90;;;9.70;74.40;;;;;;6120854;23;20402;-75
2023/01/07 12:34:06;;;;;;;1.10;1.00;;;10.10;74.70;;;;;;6122201;23;20414;-76
2023/01/07 12:36:51;;;;;;;0.88;0.88;;;10.30;73.00;;;;;;6097518;23;20750;-75
2023/01/07 12:39:38;;;;;;;0.80;0.80;;;10.50;73.10;;;;;;6122109;23;20387;-75
2023/01/07 12:42:10;;;;;;;0.90;0.90;;;10.80;73.00;;;;;;6096898;23;20686;-76
2023/01/07 12:44:45;;;;;;;0.80;0.80;;;10.80;72.50;;;;;;6098069;23;20376;-75
2023/01/07 12:47:24;;;;;;;0.80;0.80;;;10.80;72.60;;;;;;6121627;23;20425;-75
2023/01/07 12:50:05;;;;;;;0.90;0.90;;;10.90;72.40;;;;;;6099235;23;20376;-78
2023/01/07 12:52:39;;;;;;;0.70;0.70;;;10.80;73.60;;;;;;6122221;23;20375;-77
2023/01/07 12:55:36;;;;;;;1.00;1.00;;;11.00;73.10;;;;;;6097640;23;20372;-77
2023/01/07 12:58:10;;;;;;;1.50;1.40;;;11.10;73.00;;;;;;6090841;23;20368;-77
2023/01/07 13:01:01;;;;;;;0.95;0.95;;;10.90;73.20;;;;;;6097233;23;20380;-77
2023/01/07 13:03:37;;;;;;;1.10;0.80;;;10.80;75.30;;;;;;6094535;23;20705;-77
2023/01/07 13:06:25;;;;;;;0.90;0.90;;;10.90;74.50;;;;;;6121699;23;20379;-78
2023/01/07 13:09:02;;;;;;;1.20;1.10;;;11.00;74.60;;;;;;6122337;23;20422;-78
2023/01/07 13:15:28;;;;;;;1.10;1.10;;;10.30;77.60;;;;;;6121995;23;20363;-77
2023/01/07 13:18:10;;;;;;;1.00;1.00;;;10.50;78.60;;;;;;6120079;23;20388;-77
2023/01/07 13:20:50;;;;;;;1.50;1.30;;;10.60;78.20;;;;;;6097170;23;20401;-77
2023/01/07 13:23:40;;;;;;;1.67;1.57;;;10.30;78.00;;;;;;6096166;23;20383;-77
2023/01/07 13:26:39;;;;;;;1.23;1.20;;;10.00;81.50;;;;;;6095622;23;20419;-77
2023/01/07 13:29:39;;;;;;;1.20;1.20;;;9.80;85.30;;;;;;6107830;23;20705;-79
2023/01/07 13:32:27;;;;;;;1.67;1.58;;;10.10;82.90;;;;;;6095890;23;20380;-77
2023/01/07 13:35:18;;;;;;;1.73;1.63;;;10.00;84.80;;;;;;6096001;23;20407;-77
2023/01/07 13:38:04;;;;;;;1.55;1.48;;;10.30;84.40;;;;;;6122589;23;20383;-77
2023/01/07 13:40:46;;;;;;;2.20;2.10;;;10.30;83.20;;;;;;6096074;23;20712;-77
2023/01/07 13:43:38;;;;;;;1.55;1.45;;;10.10;85.10;;;;;;6095998;23;20708;-77
2023/01/07 13:46:16;;;;;;;1.60;1.50;;;10.00;87.50;;;;;;6122704;23;20400;-77
2023/01/07 13:48:50;;;;;;;1.83;1.73;;;10.00;86.20;;;;;;6119304;23;20755;-77
2023/01/07 13:51:27;;;;;;;2.05;1.95;;;9.90;89.30;;;;;;6096995;23;20403;-77
2023/01/07 13:53:55;;;;;;;2.30;2.20;;;9.80;91.30;;;;;;6096072;23;20372;-77
2023/01/07 13:56:22;;;;;;;2.25;2.15;;;9.60;94.30;;;;;;6122317;23;20376;-77
2023/01/07 13:58:54;;;;;;;2.80;2.70;;;9.40;97.70;;;;;;6121257;23;20384;-76
2023/01/07 14:01:32;;;;;;;2.70;2.60;;;9.20;99.90;;;;;;6095959;23;20418;-77
2023/01/07 14:04:05;;;;;;;2.78;2.67;;;9.00;99.90;;;;;;6093804;23;20379;-74
2023/01/07 14:06:39;;;;;;;2.70;2.60;;;9.10;99.90;;;;;;6120843;23;20685;-78